Time;durP1;ratioP1;P1;durP2;ratioP2;P2;SDS_P1;SDS_P2;PMS_P1;PMS_P2;Temp;Humidity;BMP_temperature;BMP_pressure;BME280_temperature;BME280_humidity;BME280_pressure;Samples;Min_cycle;Max_cycle;Signal;HPM_P1;HPM_P2
2022/05/11 00:01:00;;;;;;;13.15;6.38;;;18.80;98.30;;;;;;5052092;28;20135;-73
2022/05/11 00:03:27;;;;;;;8.32;5.95;;;18.80;98.10;;;;;;5051603;28;20092;-73
2022/05/11 00:05:55;;;;;;;9.68;5.80;;;18.80;98.20;;;;;;5053640;28;20056;-73
2022/05/11 00:08:23;;;;;;;8.45;5.63;;;18.70;98.10;;;;;;5055353;28;20087;-73
2022/05/11 00:10:50;;;;;;;12.60;6.40;;;18.70;98.10;;;;;;5070978;28;20417;-73
2022/05/11 00:13:19;;;;;;;10.68;5.38;;;18.70;98.10;;;;;;5054433;28;20059;-73
2022/05/11 00:15:46;;;;;;;9.50;5.18;;;18.70;97.90;;;;;;5054153;28;20118;-73
2022/05/11 00:18:14;;;;;;;7.88;5.35;;;18.70;97.70;;;;;;5052437;28;20051;-73
2022/05/11 00:20:42;;;;;;;8.00;4.63;;;18.70;97.60;;;;;;5052258;28;20053;-73
2022/05/11 00:23:09;;;;;;;7.18;5.07;;;18.80;97.60;;;;;;5035588;28;20490;-73
2022/05/11 00:25:37;;;;;;;14.25;5.93;;;18.80;97.50;;;;;;5034926;28;20051;-75
2022/05/11 00:28:04;;;;;;;9.10;6.00;;;18.80;97.40;;;;;;5066002;28;20076;-74
2022/05/11 00:30:32;;;;;;;8.48;4.70;;;18.80;97.40;;;;;;5086858;28;20403;-74
2022/05/11 00:33:00;;;;;;;8.15;5.63;;;18.80;97.40;;;;;;5019682;28;20052;-74
2022/05/11 00:35:30;;;;;;;9.98;5.28;;;18.80;97.50;;;;;;5035937;28;20122;-74
2022/05/11 00:37:58;;;;;;;8.43;4.53;;;18.70;97.40;;;;;;5054315;28;20410;-74
2022/05/11 00:40:25;;;;;;;9.13;5.00;;;18.70;97.40;;;;;;5055219;28;20048;-74
2022/05/11 00:42:53;;;;;;;9.63;5.82;;;18.70;97.40;;;;;;5070484;28;20407;-74
2022/05/11 00:45:21;;;;;;;8.65;6.00;;;18.70;97.30;;;;;;5071337;28;20463;-74
2022/05/11 00:47:58;;;;;;;9.65;5.05;;;18.70;97.30;;;;;;5055562;28;20046;-74
2022/05/11 00:50:33;;;;;;;9.30;5.60;;;18.60;97.30;;;;;;5065966;28;20544;-74
2022/05/11 00:53:11;;;;;;;11.97;5.13;;;18.60;97.20;;;;;;5065801;28;20501;-73
2022/05/11 00:55:44;;;;;;;7.60;4.72;;;18.60;97.20;;;;;;5037645;28;20048;-74
2022/05/11 00:58:17;;;;;;;10.38;5.55;;;18.60;97.10;;;;;;5056678;28;20048;-74
2022/05/11 01:00:46;;;;;;;8.48;5.45;;;18.60;97.00;;;;;;5056128;28;20130;-74
2022/05/11 01:03:16;;;;;;;8.40;5.63;;;18.60;97.00;;;;;;5072441;28;20060;-74
2022/05/11 01:05:45;;;;;;;8.45;5.15;;;18.60;97.00;;;;;;5072485;28;20052;-74
2022/05/11 01:08:15;;;;;;;10.38;5.43;;;18.60;97.10;;;;;;5072136;28;20114;-74
2022/05/11 01:10:43;;;;;;;11.90;6.63;;;18.60;96.90;;;;;;5039659;28;20537;-74
2022/05/11 01:13:14;;;;;;;8.48;5.35;;;18.50;96.90;;;;;;5055583;28;20044;-73
2022/05/11 01:15:46;;;;;;;7.35;5.05;;;18.60;96.90;;;;;;5055558;28;20062;-73
2022/05/11 01:18:14;;;;;;;9.98;4.88;;;18.60;96.90;;;;;;5072832;28;20405;-73
2022/05/11 01:20:41;;;;;;;8.77;5.38;;;18.60;96.80;;;;;;5072379;28;20409;-74
2022/05/11 01:23:25;;;;;;;11.13;5.35;;;18.60;96.80;;;;;;5055447;28;20102;-74
2022/05/11 01:25:54;;;;;;;8.10;4.43;;;18.60;96.80;;;;;;5090033;28;20079;-73
2022/05/11 01:28:21;;;;;;;7.75;4.53;;;18.50;96.80;;;;;;5090450;28;20044;-74
2022/05/11 01:30:52;;;;;;;14.60;6.10;;;18.60;96.80;;;;;;5055591;28;20048;-74
2022/05/11 01:33:23;;;;;;;7.90;4.75;;;18.60;96.90;;;;;;5055486;28;20059;-74
2022/05/11 01:36:03;;;;;;;8.45;5.38;;;18.50;96.80;;;;;;5053234;28;20071;-74
2022/05/11 01:38:31;;;;;;;9.90;5.10;;;18.60;96.80;;;;;;5056121;28;20044;-73
2022/05/11 01:40:58;;;;;;;7.22;5.18;;;18.50;96.90;;;;;;5055570;28;20059;-74
2022/05/11 01:43:28;;;;;;;10.75;4.57;;;18.50;96.90;;;;;;5055229;28;20568;-74
2022/05/11 01:45:57;;;;;;;8.55;4.68;;;18.40;96.80;;;;;;5055626;28;20060;-73
2022/05/11 01:48:25;;;;;;;9.90;5.03;;;18.40;96.80;;;;;;5072364;28;20048;-73
2022/05/11 01:50:53;;;;;;;8.75;4.93;;;18.40;96.80;;;;;;5055710;28;20098;-74
2022/05/11 01:53:21;;;;;;;9.48;4.38;;;18.40;96.60;;;;;;5055275;28;20159;-74
2022/05/11 01:55:48;;;;;;;9.13;4.78;;;18.40;96.60;;;;;;5054449;28;20052;-73
2022/05/11 01:58:17;;;;;;;8.90;4.70;;;18.40;96.50;;;;;;5071261;28;20052;-74
2022/05/11 02:00:47;;;;;;;9.57;5.13;;;18.40;96.50;;;;;;5072049;28;20052;-74
2022/05/11 02:03:18;;;;;;;10.98;4.93;;;18.40;96.50;;;;;;5071540;28;20114;-73
2022/05/11 02:08:37;;;;;;;8.63;4.93;;;18.40;96.50;;;;;;5055431;28;20074;-74
2022/05/11 02:11:06;;;;;;;8.23;5.03;;;18.40;96.50;;;;;;5055075;28;20139;-74
2022/05/11 02:13:33;;;;;;;11.05;5.60;;;18.40;96.70;;;;;;5055255;28;20389;-74
2022/05/11 02:16:02;;;;;;;5.72;4.57;;;18.30;96.70;;;;;;5038648;28;20476;-74
2022/05/11 02:18:30;;;;;;;9.88;5.28;;;18.30;96.70;;;;;;5057925;28;20464;-74
2022/05/11 02:20:57;;;;;;;8.35;5.32;;;18.20;96.80;;;;;;5075023;28;20048;-73
2022/05/11 02:23:25;;;;;;;10.38;5.47;;;18.10;96.80;;;;;;5055144;28;20556;-74
2022/05/11 02:25:53;;;;;;;8.60;4.43;;;18.10;96.80;;;;;;5075356;28;20155;-75
2022/05/11 02:28:21;;;;;;;8.10;4.78;;;18.10;96.70;;;;;;5075716;28;20390;-74
2022/05/11 02:30:52;;;;;;;10.27;5.93;;;18.10;96.80;;;;;;5058997;28;20055;-74
2022/05/11 02:33:21;;;;;;;6.20;4.45;;;18.10;96.50;;;;;;5074333;28;20044;-74
2022/05/11 02:35:50;;;;;;;6.88;4.53;;;18.10;96.40;;;;;;5093074;28;20410;-74
2022/05/11 02:38:26;;;;;;;7.20;4.05;;;18.10;96.30;;;;;;5075031;28;20142;-74
2022/05/11 02:40:54;;;;;;;8.68;4.22;;;18.10;96.30;;;;;;5063940;28;20064;-74
2022/05/11 02:43:22;;;;;;;6.07;4.00;;;18.20;96.30;;;;;;5054811;28;20045;-74
2022/05/11 02:45:50;;;;;;;8.32;4.55;;;18.20;96.30;;;;;;5041802;28;20581;-74
2022/05/11 02:48:21;;;;;;;7.72;4.55;;;18.20;96.30;;;;;;5058356;28;20056;-74
2022/05/11 02:50:54;;;;;;;7.40;4.50;;;18.20;96.30;;;;;;5093697;28;20408;-74
2022/05/11 02:53:24;;;;;;;10.18;5.25;;;18.20;96.30;;;;;;5093154;28;20067;-74
2022/05/11 02:55:54;;;;;;;8.30;4.47;;;18.20;96.30;;;;;;5074720;28;20032;-74
2022/05/11 02:58:23;;;;;;;7.78;4.63;;;18.20;96.30;;;;;;5075234;28;20050;-74
2022/05/11 03:00:52;;;;;;;8.30;4.82;;;18.20;96.40;;;;;;5053755;28;20074;-74
2022/05/11 03:03:21;;;;;;;10.55;5.10;;;18.20;96.40;;;;;;5059667;28;20133;-74
2022/05/11 03:05:52;;;;;;;9.10;5.22;;;18.20;96.50;;;;;;5054598;28;20055;-74
2022/05/11 03:08:20;;;;;;;9.52;5.18;;;18.20;96.50;;;;;;5054921;28;20045;-74
2022/05/11 03:10:48;;;;;;;10.77;5.18;;;18.10;96.60;;;;;;5072888;28;20067;-74
2022/05/11 03:13:17;;;;;;;11.60;5.88;;;18.10;96.60;;;;;;5046998;28;20504;-73
2022/05/11 03:15:44;;;;;;;9.35;4.75;;;18.10;96.80;;;;;;5055486;28;20044;-74
2022/05/11 03:18:12;;;;;;;9.77;5.78;;;18.10;96.90;;;;;;5078560;28;20040;-74
2022/05/11 03:20:40;;;;;;;9.45;5.20;;;18.10;96.90;;;;;;5073737;28;20128;-73
2022/05/11 03:23:07;;;;;;;10.35;4.80;;;18.10;97.00;;;;;;5057658;28;20052;-74
2022/05/11 03:25:35;;;;;;;10.05;5.15;;;18.10;97.10;;;;;;5073967;28;20074;-74
2022/05/11 03:28:03;;;;;;;9.70;5.60;;;18.10;97.10;;;;;;5073083;28;20406;-74
2022/05/11 03:30:31;;;;;;;8.07;5.22;;;18.10;97.20;;;;;;5074444;28;20097;-74
2022/05/11 03:35:44;;;;;;;12.50;5.03;;;18.10;97.50;;;;;;5073901;28;20040;-74
2022/05/11 03:38:12;;;;;;;6.18;4.90;;;18.00;97.70;;;;;;5057561;28;20502;-74
2022/05/11 03:40:39;;;;;;;11.25;4.85;;;18.00;97.70;;;;;;5074315;28;20040;-74
2022/05/11 03:43:07;;;;;;;11.13;5.18;;;18.10;97.90;;;;;;5074464;28;20130;-74
2022/05/11 03:45:35;;;;;;;11.02;4.93;;;18.10;97.90;;;;;;5057185;28;20055;-74
2022/05/11 03:48:03;;;;;;;8.10;5.22;;;18.00;97.90;;;;;;5073564;28;20056;-74
2022/05/11 03:50:32;;;;;;;7.50;4.78;;;18.10;98.00;;;;;;5057225;28;20044;-73
2022/05/11 03:53:00;;;;;;;12.25;5.63;;;18.10;98.10;;;;;;5073618;28;20051;-74
2022/05/11 03:55:27;;;;;;;9.07;5.10;;;18.10;98.20;;;;;;5056735;28;20048;-74
2022/05/11 03:57:55;;;;;;;9.02;5.32;;;18.10;98.30;;;;;;5073782;28;20047;-74
2022/05/11 04:00:24;;;;;;;9.07;4.82;;;18.10;98.40;;;;;;5074123;28;20044;-74
2022/05/11 04:02:54;;;;;;;7.20;5.72;;;18.10;98.50;;;;;;5091547;28;20051;-73
2022/05/11 04:05:22;;;;;;;9.85;5.03;;;18.20;98.70;;;;;;5056791;28;20071;-74
2022/05/11 04:07:50;;;;;;;11.18;5.80;;;18.20;98.80;;;;;;5091080;28;20039;-74
2022/05/11 04:10:18;;;;;;;14.05;5.45;;;18.20;98.90;;;;;;5073544;28;20785;-74
2022/05/11 04:12:46;;;;;;;9.70;5.72;;;18.20;99.00;;;;;;5056872;28;20055;-74
2022/05/11 04:15:15;;;;;;;11.57;6.07;;;18.30;99.00;;;;;;5071584;28;20040;-74
2022/05/11 04:17:44;;;;;;;10.75;6.97;;;18.30;99.10;;;;;;5056601;28;20040;-74
2022/05/11 04:20:15;;;;;;;9.13;5.70;;;18.40;99.20;;;;;;5073453;28;20036;-74
2022/05/11 04:22:44;;;;;;;9.10;5.50;;;18.50;99.30;;;;;;5057128;28;20052;-74
2022/05/11 04:25:15;;;;;;;7.13;5.03;;;18.50;99.40;;;;;;5073079;28;20401;-74
2022/05/11 04:27:47;;;;;;;9.98;5.30;;;18.60;99.40;;;;;;5072688;28;20619;-74
2022/05/11 04:30:16;;;;;;;9.63;5.55;;;18.70;99.50;;;;;;5056362;28;20047;-73
2022/05/11 04:32:44;;;;;;;8.48;5.60;;;18.80;99.50;;;;;;5056201;28;20048;-74
2022/05/11 04:35:11;;;;;;;8.27;6.50;;;18.80;99.40;;;;;;5056112;28;20082;-74
2022/05/11 04:37:39;;;;;;;12.25;6.20;;;19.00;99.50;;;;;;5055895;28;20414;-74
2022/05/11 04:40:08;;;;;;;10.40;5.70;;;19.00;99.40;;;;;;5055413;28;20397;-74
2022/05/11 04:42:42;;;;;;;6.95;4.47;;;19.10;99.40;;;;;;5072619;28;20063;-74
2022/05/11 04:45:10;;;;;;;8.20;6.53;;;19.20;99.30;;;;;;5072937;28;20067;-74
2022/05/11 04:47:38;;;;;;;19.42;7.47;;;19.30;99.30;;;;;;5072625;28;20036;-73
2022/05/11 04:50:07;;;;;;;8.18;5.65;;;19.40;99.10;;;;;;5055479;28;20143;-74
2022/05/11 04:52:35;;;;;;;12.15;5.57;;;19.50;99.10;;;;;;5072820;28;20052;-74
2022/05/11 04:55:04;;;;;;;8.68;5.10;;;19.60;98.90;;;;;;5053445;28;20066;-74
2022/05/11 04:57:32;;;;;;;14.00;5.72;;;19.70;98.90;;;;;;5050449;28;20519;-74
2022/05/11 05:00:00;;;;;;;11.57;6.00;;;19.90;98.90;;;;;;5053565;28;20043;-74
2022/05/11 05:02:28;;;;;;;18.67;7.10;;;19.90;98.90;;;;;;5097449;28;20462;-74
2022/05/11 05:05:01;;;;;;;12.48;6.40;;;20.00;99.00;;;;;;5077966;28;20409;-74
2022/05/11 05:07:28;;;;;;;8.65;5.10;;;20.10;99.00;;;;;;4765538;28;20815;-71
2022/05/11 05:09:56;;;;;;;17.75;6.25;;;20.20;99.00;;;;;;4657317;28;20695;-71
2022/05/11 05:12:24;;;;;;;11.93;7.05;;;20.40;98.90;;;;;;4648901;28;20752;-71
2022/05/11 05:14:52;;;;;;;9.82;5.70;;;20.50;98.80;;;;;;4660475;28;20680;-71
2022/05/11 05:17:20;;;;;;;14.00;7.55;;;20.60;98.80;;;;;;4841491;28;20052;-73
2022/05/11 05:19:49;;;;;;;11.93;6.45;;;20.70;98.70;;;;;;5046369;28;20058;-72
2022/05/11 05:22:16;;;;;;;9.45;6.30;;;20.80;98.70;;;;;;5067363;28;20054;-73
2022/05/11 05:24:45;;;;;;;11.98;5.80;;;21.00;98.70;;;;;;5070351;28;20036;-73
2022/05/11 05:27:14;;;;;;;14.13;6.20;;;21.10;98.50;;;;;;5050705;28;20044;-73
2022/05/11 05:32:37;;;;;;;9.80;5.40;;;21.30;98.30;;;;;;5058031;28;20044;-74
2022/05/11 05:35:05;;;;;;;;;;;21.50;98.10;;;;;;5072194;28;20048;-73
2022/05/11 05:37:33;;;;;;;9.85;5.85;;;21.60;98.00;;;;;;5087610;28;19920;-73
2022/05/11 05:40:02;;;;;;;8.88;5.60;;;21.70;97.90;;;;;;5053922;28;20040;-74
2022/05/11 05:42:30;;;;;;;11.63;5.45;;;21.80;97.90;;;;;;5069963;28;20049;-73
2022/05/11 05:44:57;;;;;;;9.98;6.03;;;21.90;97.70;;;;;;5046023;28;20070;-73
2022/05/11 05:47:25;;;;;;;11.75;6.70;;;22.00;97.40;;;;;;5052094;28;20049;-73
2022/05/11 05:49:53;;;;;;;9.02;6.05;;;22.10;97.40;;;;;;5064737;28;20178;-73
2022/05/11 05:52:23;;;;;;;11.93;5.90;;;22.10;97.30;;;;;;5074568;28;20048;-73
2022/05/11 05:54:54;;;;;;;9.55;4.53;;;22.30;97.20;;;;;;5075837;28;20048;-73
2022/05/11 05:57:22;;;;;;;8.18;5.88;;;22.30;97.00;;;;;;5042870;28;20509;-73
2022/05/11 05:59:50;;;;;;;8.60;5.07;;;22.50;96.90;;;;;;5076012;28;20154;-73
2022/05/11 06:02:18;;;;;;;11.57;5.55;;;22.60;96.80;;;;;;5059005;28;20040;-73
2022/05/11 06:04:49;;;;;;;10.30;5.63;;;22.70;96.60;;;;;;5055199;28;20072;-73
2022/05/11 06:07:19;;;;;;;12.07;6.15;;;22.70;96.30;;;;;;5058072;28;20074;-73
2022/05/11 06:09:47;;;;;;;11.10;4.85;;;22.90;96.20;;;;;;5075520;28;20138;-73
2022/05/11 06:12:15;;;;;;;10.40;5.90;;;23.00;96.20;;;;;;5075800;28;20051;-73
2022/05/11 06:14:43;;;;;;;8.75;5.15;;;23.10;95.90;;;;;;5094427;28;20040;-73
2022/05/11 06:17:18;;;;;;;8.23;4.53;;;23.20;95.70;;;;;;5094388;28;20482;-73
2022/05/11 06:19:46;;;;;;;14.32;5.78;;;23.20;95.50;;;;;;5058937;28;20054;-73
2022/05/11 06:22:13;;;;;;;8.65;4.82;;;23.30;95.40;;;;;;5093979;28;20044;-73
2022/05/11 06:24:41;;;;;;;8.27;4.82;;;23.40;95.30;;;;;;5093676;28;20047;-73
2022/05/11 06:27:16;;;;;;;10.23;5.75;;;23.50;95.00;;;;;;5075810;28;20898;-73
2022/05/11 06:29:54;;;;;;;11.38;5.53;;;23.70;94.90;;;;;;5075930;28;20047;-73
2022/05/11 06:32:25;;;;;;;9.18;5.72;;;23.80;94.90;;;;;;5057751;28;20060;-73
2022/05/11 06:34:54;;;;;;;12.63;6.70;;;23.90;94.50;;;;;;5093310;28;20048;-73
2022/05/11 06:37:24;;;;;;;12.77;4.63;;;24.00;94.10;;;;;;5074806;28;20094;-73
2022/05/11 06:39:52;;;;;;;13.88;5.80;;;24.00;93.90;;;;;;5058471;28;20055;-73
2022/05/11 06:42:21;;;;;;;8.63;5.07;;;24.10;94.00;;;;;;5059000;28;20048;-73
2022/05/11 06:44:49;;;;;;;7.95;4.55;;;24.20;93.90;;;;;;5075551;28;20135;-73
2022/05/11 06:47:17;;;;;;;7.30;4.28;;;24.30;93.50;;;;;;5059026;28;20055;-73
2022/05/11 06:49:45;;;;;;;10.68;5.07;;;24.40;93.20;;;;;;5075103;28;20588;-73
2022/05/11 06:52:14;;;;;;;9.45;4.78;;;24.40;92.60;;;;;;5058495;28;20367;-73
2022/05/11 07:00:17;;;;;;;6.35;4.22;;;24.50;91.70;;;;;;5092997;28;19977;-73
2022/05/11 07:02:45;;;;;;;8.18;4.60;;;24.60;91.60;;;;;;5074479;28;20059;-73
2022/05/11 07:05:13;;;;;;;8.10;5.00;;;24.50;91.60;;;;;;5043231;28;20056;-73
2022/05/11 07:07:41;;;;;;;7.05;3.95;;;24.60;91.70;;;;;;5037116;28;20139;-73
2022/05/11 07:10:09;;;;;;;7.10;4.05;;;24.70;91.50;;;;;;5055051;28;20041;-73
2022/05/11 07:12:38;;;;;;;7.60;4.50;;;24.80;91.50;;;;;;5072391;28;20139;-73
2022/05/11 07:15:08;;;;;;;9.07;4.63;;;24.80;91.30;;;;;;5054428;28;20094;-73
2022/05/11 07:17:39;;;;;;;7.13;4.75;;;25.00;91.40;;;;;;5054786;28;20075;-73
2022/05/11 07:20:20;;;;;;;7.90;5.03;;;25.10;91.40;;;;;;5055257;28;20047;-73
2022/05/11 07:22:47;;;;;;;8.35;4.50;;;25.30;91.20;;;;;;5037769;28;20048;-73
2022/05/11 07:25:17;;;;;;;7.63;4.85;;;25.40;90.90;;;;;;5034343;28;20084;-73
2022/05/11 07:27:46;;;;;;;8.07;4.20;;;25.50;90.70;;;;;;5053332;28;20461;-73
2022/05/11 07:30:17;;;;;;;7.05;4.85;;;25.60;90.30;;;;;;5038027;28;20040;-73
2022/05/11 07:32:45;;;;;;;11.10;4.93;;;25.70;90.20;;;;;;5072191;28;20139;-73
2022/05/11 07:35:13;;;;;;;10.55;4.60;;;25.70;90.10;;;;;;5054234;28;20051;-73
2022/05/11 07:37:40;;;;;;;11.48;5.07;;;25.80;90.10;;;;;;5054339;28;20050;-73
2022/05/11 07:40:09;;;;;;;8.25;5.03;;;25.90;90.10;;;;;;5037700;28;20045;-73
2022/05/11 07:42:38;;;;;;;8.75;4.55;;;25.90;89.90;;;;;;5037584;28;20055;-73
2022/05/11 07:45:06;;;;;;;7.13;4.25;;;25.70;89.30;;;;;;5072023;28;20125;-73
2022/05/11 07:47:33;;;;;;;9.75;3.90;;;25.80;90.00;;;;;;5053375;28;20376;-74
2022/05/11 07:50:01;;;;;;;7.82;3.67;;;25.80;90.00;;;;;;5053835;28;20522;-74
2022/05/11 07:52:29;;;;;;;8.73;4.35;;;25.90;89.70;;;;;;5054027;28;20048;-73
2022/05/11 07:54:56;;;;;;;6.35;4.10;;;26.00;89.60;;;;;;5070929;28;20036;-73
2022/05/11 08:00:10;;;;;;;6.75;4.03;;;26.20;89.30;;;;;;5057321;28;20068;-73
2022/05/11 08:02:41;;;;;;;7.40;3.97;;;26.20;88.60;;;;;;5073595;28;20083;-73
2022/05/11 08:05:12;;;;;;;10.88;4.20;;;26.10;88.60;;;;;;5073444;28;20076;-73
2022/05/11 08:07:39;;;;;;;5.22;3.65;;;26.20;88.70;;;;;;5091717;28;20473;-73
2022/05/11 08:10:12;;;;;;;6.88;4.63;;;26.30;88.80;;;;;;5091737;28;20055;-73
2022/05/11 08:12:40;;;;;;;7.50;4.25;;;26.30;87.90;;;;;;5073662;28;20056;-73
2022/05/11 08:15:08;;;;;;;10.88;4.70;;;26.10;88.30;;;;;;5072930;28;20052;-74
2022/05/11 08:17:36;;;;;;;10.15;4.40;;;26.20;88.40;;;;;;5072904;28;20036;-73
2022/05/11 08:20:10;;;;;;;9.68;4.13;;;26.20;88.50;;;;;;5091215;28;20059;-73
2022/05/11 08:22:37;;;;;;;6.13;3.90;;;26.30;88.50;;;;;;5073260;28;20048;-72
2022/05/11 08:25:06;;;;;;;5.78;4.03;;;26.30;88.40;;;;;;5056635;28;20574;-71
2022/05/11 08:27:33;;;;;;;7.85;4.10;;;26.40;88.50;;;;;;5056858;28;20102;-72
2022/05/11 08:36:02;;;;;;;8.57;4.78;;;26.50;88.20;;;;;;5073193;28;20139;-71
2022/05/11 08:38:32;;;;;;;6.15;4.63;;;26.20;88.70;;;;;;5090954;28;20047;-71
2022/05/11 08:41:09;;;;;;;7.75;4.00;;;26.00;89.20;;;;;;5072953;28;20036;-71
2022/05/11 08:43:38;;;;;;;10.07;4.50;;;26.10;89.50;;;;;;5073002;28;20048;-72
2022/05/11 08:46:17;;;;;;;8.68;4.20;;;26.10;88.80;;;;;;5073195;28;20040;-72
2022/05/11 08:49:00;;;;;;;9.57;4.63;;;26.20;89.30;;;;;;5073079;28;20048;-72
2022/05/11 08:51:35;;;;;;;9.25;4.05;;;26.30;88.80;;;;;;5088245;28;20043;-71
2022/05/11 08:54:41;;;;;;;7.18;5.13;;;26.30;88.80;;;;;;5055335;28;20063;-71
2022/05/11 08:57:23;;;;;;;9.48;4.18;;;26.50;88.90;;;;;;5072068;28;20062;-71
2022/05/11 09:00:12;;;;;;;8.98;4.45;;;26.50;88.70;;;;;;5055745;28;20044;-71
2022/05/11 09:02:52;;;;;;;9.10;5.22;;;26.50;89.00;;;;;;5055400;28;20070;-71
2022/05/11 09:05:26;;;;;;;7.93;4.70;;;26.60;88.50;;;;;;5055434;28;20052;-71
2022/05/11 09:07:55;;;;;;;11.23;4.30;;;26.30;88.30;;;;;;5055293;28;20063;-71
2022/05/11 09:10:27;;;;;;;9.85;5.03;;;26.40;89.20;;;;;;5039513;28;20199;-71
2022/05/11 09:12:58;;;;;;;7.32;4.63;;;26.30;89.50;;;;;;5056265;28;20123;-71
2022/05/11 09:15:53;;;;;;;7.18;4.75;;;26.40;90.10;;;;;;5055559;28;20063;-72
2022/05/11 09:18:30;;;;;;;8.10;3.90;;;26.50;88.80;;;;;;5038921;28;20048;-72
2022/05/11 09:21:01;;;;;;;12.00;4.47;;;26.50;87.90;;;;;;5055946;28;20173;-71
2022/05/11 09:23:42;;;;;;;5.72;4.32;;;26.60;87.80;;;;;;5055111;28;20857;-72
2022/05/11 09:26:14;;;;;;;7.32;4.45;;;26.60;87.00;;;;;;5072137;28;20498;-71
2022/05/11 09:28:47;;;;;;;12.07;5.53;;;26.60;87.20;;;;;;5090013;28;20063;-72
2022/05/11 09:31:25;;;;;;;7.80;4.20;;;26.70;87.60;;;;;;5055450;28;20188;-72
2022/05/11 09:34:00;;;;;;;10.05;4.40;;;26.80;88.00;;;;;;5054756;28;20097;-72
2022/05/11 09:36:56;;;;;;;7.30;4.18;;;26.80;86.80;;;;;;5054634;28;20052;-71
2022/05/11 09:39:27;;;;;;;6.38;4.57;;;26.90;87.10;;;;;;5069350;28;20051;-71
2022/05/11 09:42:01;;;;;;;6.97;4.55;;;26.80;87.00;;;;;;5060626;28;20135;-72
2022/05/11 09:44:41;;;;;;;8.55;4.10;;;26.80;87.30;;;;;;5052433;28;20044;-71
2022/05/11 09:47:33;;;;;;;8.30;4.63;;;26.80;87.90;;;;;;5071891;28;20040;-72
2022/05/11 09:50:33;;;;;;;7.25;4.95;;;26.80;89.20;;;;;;5054817;28;20052;-71
2022/05/11 09:53:25;;;;;;;5.70;3.92;;;26.80;88.90;;;;;;5039436;28;20052;-71
2022/05/11 09:55:53;;;;;;;9.68;5.38;;;26.90;89.10;;;;;;5055031;28;20064;-71
2022/05/11 09:58:33;;;;;;;7.20;4.15;;;26.90;88.70;;;;;;5055583;28;20409;-73
2022/05/11 10:01:16;;;;;;;7.07;4.63;;;26.90;88.50;;;;;;5071583;28;20111;-71
2022/05/11 10:03:51;;;;;;;6.68;4.70;;;26.80;88.20;;;;;;5054443;28;20060;-71
2022/05/11 10:06:32;;;;;;;9.70;4.82;;;26.70;88.20;;;;;;5056264;28;20127;-71
2022/05/11 10:09:01;;;;;;;6.45;3.65;;;26.60;89.20;;;;;;5089361;28;20506;-71
2022/05/11 10:11:45;;;;;;;7.65;4.40;;;26.40;88.60;;;;;;5089680;28;20135;-72
2022/05/11 10:22:52;;;;;;;6.57;4.20;;;26.20;88.30;;;;;;5071929;28;20044;-71
2022/05/11 10:25:35;;;;;;;10.10;4.68;;;26.30;89.50;;;;;;5054827;28;20044;-73
2022/05/11 10:28:04;;;;;;;8.52;4.93;;;26.50;89.40;;;;;;5029120;28;20056;-71
2022/05/11 10:30:55;;;;;;;8.70;4.55;;;26.50;88.40;;;;;;5052980;28;20152;-73
2022/05/11 10:33:44;;;;;;;7.97;4.63;;;26.70;89.00;;;;;;5055047;28;20056;-71
2022/05/11 10:36:25;;;;;;;9.18;5.10;;;26.90;88.40;;;;;;5054654;28;20055;-72
2022/05/11 10:39:01;;;;;;;8.20;4.38;;;26.90;87.90;;;;;;5042354;28;20059;-72
2022/05/11 10:41:47;;;;;;;7.45;4.53;;;26.80;86.90;;;;;;5059282;28;20466;-71
2022/05/11 10:44:34;;;;;;;9.43;3.78;;;26.90;86.60;;;;;;5058315;28;20047;-71
2022/05/11 10:47:05;;;;;;;9.98;4.78;;;27.00;85.20;;;;;;5075429;28;20394;-71
2022/05/11 10:49:45;;;;;;;11.82;4.97;;;27.00;86.40;;;;;;5058091;28;20097;-73
2022/05/11 10:52:21;;;;;;;8.50;4.28;;;27.00;86.70;;;;;;5058296;28;20101;-72
2022/05/11 10:55:07;;;;;;;8.20;4.00;;;27.00;86.00;;;;;;5075278;28;20054;-71
2022/05/11 10:57:59;;;;;;;7.80;4.68;;;26.90;86.50;;;;;;5075252;28;20105;-71
2022/05/11 11:00:30;;;;;;;11.48;4.50;;;26.90;86.90;;;;;;5075386;28;20048;-71
2022/05/11 11:03:27;;;;;;;7.93;4.25;;;26.80;86.00;;;;;;5075035;28;20120;-72
2022/05/11 11:09:35;;;;;;;7.57;4.28;;;26.90;84.70;;;;;;5058550;28;20145;-72
2022/05/11 11:12:06;;;;;;;6.63;3.97;;;26.80;86.10;;;;;;5075538;28;20063;-71
2022/05/11 11:14:39;;;;;;;7.85;4.75;;;26.90;86.60;;;;;;5075377;28;20046;-71
2022/05/11 11:17:10;;;;;;;11.27;4.55;;;26.90;86.20;;;;;;5042227;28;20126;-72
2022/05/11 11:19:42;;;;;;;8.50;4.38;;;26.90;86.50;;;;;;5058186;28;20051;-72
2022/05/11 11:22:09;;;;;;;8.02;3.83;;;26.80;86.60;;;;;;5040066;28;20154;-76
2022/05/11 11:24:41;;;;;;;7.80;4.32;;;26.80;87.10;;;;;;5055636;28;20049;-72
2022/05/11 11:27:10;;;;;;;6.28;3.88;;;26.80;87.30;;;;;;5054387;28;20044;-72
2022/05/11 11:30:01;;;;;;;5.82;4.25;;;26.80;87.00;;;;;;5037781;28;20209;-71
2022/05/11 11:32:28;;;;;;;6.63;4.35;;;26.80;88.10;;;;;;5036307;28;20057;-72
2022/05/11 11:35:25;;;;;;;8.90;3.65;;;26.80;86.40;;;;;;5071654;28;20048;-72
2022/05/11 11:38:01;;;;;;;9.30;4.85;;;26.80;85.10;;;;;;5059187;28;20545;-72
2022/05/11 11:40:31;;;;;;;8.82;4.22;;;26.80;86.80;;;;;;5037735;28;20083;-72
2022/05/11 11:43:38;;;;;;;10.75;4.22;;;26.80;86.90;;;;;;5037365;28;20052;-72
2022/05/11 11:45:51;;;;;;;10.27;4.70;;;26.70;87.20;;;;;;5072075;28;20048;-71
2022/05/11 11:48:24;;;;;;;8.25;4.43;;;26.50;88.10;;;;;;5020150;28;20052;-71
2022/05/11 11:50:53;;;;;;;11.70;6.85;;;26.40;88.40;;;;;;5071910;28;20044;-72
2022/05/11 11:53:29;;;;;;;82.45;51.88;;;26.40;88.20;;;;;;5054102;28;20048;-72
2022/05/11 11:56:23;;;;;;;245.50;148.20;;;26.40;87.00;;;;;;5037577;28;20044;-72
2022/05/11 11:59:10;;;;;;;73.15;47.53;;;26.30;86.50;;;;;;5037954;28;20404;-71
2022/05/11 12:02:13;;;;;;;103.45;62.92;;;26.30;87.80;;;;;;5053724;28;20047;-72
2022/05/11 12:04:47;;;;;;;25.05;16.63;;;26.30;87.70;;;;;;5033217;28;20091;-72
2022/05/11 12:16:05;;;;;;;7.43;4.85;;;26.40;85.00;;;;;;5073979;28;20059;-72
2022/05/11 12:18:40;;;;;;;10.30;5.18;;;26.30;85.10;;;;;;5071469;28;20099;-72
2022/05/11 12:21:26;;;;;;;9.80;4.57;;;26.30;84.90;;;;;;5036834;28;20052;-73
2022/05/11 12:23:55;;;;;;;6.35;3.97;;;26.40;85.50;;;;;;5054108;28;20044;-72
2022/05/11 12:26:27;;;;;;;13.60;8.70;;;26.30;85.70;;;;;;5053371;28;20045;-71
2022/05/11 12:32:08;;;;;;;31.30;19.05;;;26.20;88.60;;;;;;5053448;28;20506;-71
2022/05/11 12:34:44;;;;;;;55.28;37.60;;;26.10;89.20;;;;;;5070340;28;20048;-71
2022/05/11 12:37:41;;;;;;;30.83;17.73;;;26.00;89.40;;;;;;5018916;28;20589;-72
2022/05/11 12:40:15;;;;;;;87.30;53.40;;;25.90;89.50;;;;;;5023292;28;20454;-71
2022/05/11 12:42:57;;;;;;;50.63;34.10;;;25.90;90.50;;;;;;5070183;28;20143;-73
2022/05/11 12:45:33;;;;;;;153.20;92.22;;;25.70;90.50;;;;;;5051958;28;20506;-71
2022/05/11 12:48:03;;;;;;;98.22;67.95;;;25.60;90.80;;;;;;5019593;28;20064;-72
2022/05/11 12:50:37;;;;;;;74.65;45.83;;;25.40;90.60;;;;;;5035892;28;20048;-72
2022/05/11 12:53:17;;;;;;;39.40;26.98;;;25.40;90.70;;;;;;5057178;28;20838;-72
2022/05/11 12:55:48;;;;;;;169.93;103.05;;;25.50;89.90;;;;;;5035635;28;20135;-72
2022/05/11 12:58:20;;;;;;;22.88;16.75;;;25.50;88.00;;;;;;5057583;28;20139;-73
2022/05/11 13:00:58;;;;;;;12.75;7.90;;;25.60;87.10;;;;;;5035103;28;20139;-73
2022/05/11 13:03:33;;;;;;;10.63;5.78;;;25.70;86.30;;;;;;5040482;28;20049;-72
2022/05/11 13:06:27;;;;;;;8.10;4.90;;;25.80;85.30;;;;;;5069244;28;20559;-72
2022/05/11 13:08:59;;;;;;;7.72;4.03;;;25.80;85.40;;;;;;5044685;28;20113;-72
2022/05/11 13:11:28;;;;;;;10.07;5.38;;;25.80;86.50;;;;;;5072340;28;20056;-71
2022/05/11 13:13:58;;;;;;;9.68;6.05;;;25.80;88.30;;;;;;5066004;28;20051;-73
2022/05/11 13:16:26;;;;;;;9.95;6.15;;;25.80;88.00;;;;;;5072368;28;20059;-72
2022/05/11 13:19:27;;;;;;;8.13;5.30;;;25.70;86.80;;;;;;5050937;28;20059;-72
2022/05/11 13:21:58;;;;;;;10.48;4.55;;;25.60;88.00;;;;;;5018780;28;20048;-71
2022/05/11 13:24:49;;;;;;;8.63;5.53;;;25.50;87.90;;;;;;5050892;28;20044;-72
2022/05/11 13:27:49;;;;;;;7.93;5.15;;;25.40;88.40;;;;;;5053929;28;20058;-71
2022/05/11 13:30:29;;;;;;;6.93;4.68;;;25.30;88.40;;;;;;5059657;28;20491;-72
2022/05/11 13:33:00;;;;;;;10.85;5.22;;;25.30;88.30;;;;;;5040562;28;20064;-72
2022/05/11 13:35:27;;;;;;;9.10;5.10;;;25.40;88.50;;;;;;5059722;28;20469;-72
2022/05/11 13:38:10;;;;;;;9.63;5.13;;;25.40;88.60;;;;;;5039980;28;20087;-73
2022/05/11 13:40:38;;;;;;;10.40;6.35;;;25.40;88.90;;;;;;5045481;28;20552;-72
2022/05/11 13:43:20;;;;;;;9.07;4.45;;;25.40;89.60;;;;;;5049993;28;20049;-71
2022/05/11 13:46:09;;;;;;;11.02;6.32;;;25.30;85.60;;;;;;5052605;28;20440;-73
2022/05/11 13:48:46;;;;;;;10.88;4.65;;;25.30;88.30;;;;;;5062965;28;20040;-72
2022/05/11 13:51:25;;;;;;;10.05;4.53;;;25.30;87.60;;;;;;5055962;28;20060;-72
2022/05/11 13:53:57;;;;;;;7.70;4.53;;;25.30;86.60;;;;;;5055409;28;20571;-72
2022/05/11 13:56:29;;;;;;;12.85;5.22;;;25.40;86.60;;;;;;5087811;28;20046;-72